createdAt,value
2022-10-06T00:02:19.306Z,6.10
2022-10-06T00:05:22.705Z,6.47
2022-10-06T00:08:26.230Z,6.57
2022-10-06T00:11:29.665Z,8.70
2022-10-06T00:14:34.342Z,10.97
2022-10-06T00:17:37.532Z,13.63
2022-10-06T00:20:43.460Z,11.33
2022-10-06T00:23:46.949Z,7.93
2022-10-06T00:26:50.170Z,6.40
2022-10-06T00:29:54.744Z,5.80
2022-10-06T00:33:00.834Z,5.13
2022-10-06T00:36:04.930Z,4.67
2022-10-06T00:39:08.228Z,4.37
2022-10-06T00:42:28.013Z,4.70
2022-10-06T00:45:37.709Z,5.03
2022-10-06T00:48:41.173Z,4.80
2022-10-06T00:51:48.860Z,4.40
2022-10-06T00:54:52.656Z,4.30
2022-10-06T00:57:56.506Z,4.43
2022-10-06T01:01:01.223Z,4.40
2022-10-06T01:04:10.740Z,4.27
2022-10-06T01:07:13.946Z,4.40
2022-10-06T01:10:17.250Z,4.20
2022-10-06T01:13:21.132Z,4.30
2022-10-06T01:16:27.427Z,3.93
2022-10-06T01:19:43.849Z,3.97
2022-10-06T01:22:51.678Z,3.90
2022-10-06T01:25:55.035Z,3.90
2022-10-06T01:28:58.852Z,3.07
2022-10-06T01:32:02.693Z,3.30
2022-10-06T01:35:07.754Z,3.80
2022-10-06T01:38:12.522Z,3.40
2022-10-06T01:41:16.465Z,3.10
2022-10-06T01:44:19.999Z,3.27
2022-10-06T01:47:23.169Z,3.33
2022-10-06T01:50:26.451Z,3.53
2022-10-06T01:53:31.153Z,3.53
2022-10-06T01:56:35.022Z,3.17
2022-10-06T01:59:38.764Z,3.43
2022-10-06T02:02:42.016Z,3.23
2022-10-06T02:05:45.286Z,3.00
2022-10-06T02:08:50.930Z,2.73
2022-10-06T02:11:54.467Z,2.60
2022-10-06T02:14:57.690Z,3.20
2022-10-06T02:18:00.934Z,2.97
2022-10-06T02:21:05.533Z,3.00
2022-10-06T02:24:10.235Z,2.90
2022-10-06T02:27:13.455Z,2.90
2022-10-06T02:30:17.370Z,3.00
2022-10-06T02:33:22.678Z,3.00
2022-10-06T02:36:26.153Z,2.90
2022-10-06T02:39:30.849Z,3.17
2022-10-06T02:42:36.661Z,3.33
2022-10-06T02:45:40.288Z,3.40
2022-10-06T02:48:44.372Z,3.63
2022-10-06T02:51:47.783Z,3.17
2022-10-06T02:54:52.481Z,3.13
2022-10-06T02:57:56.299Z,3.00
2022-10-06T03:01:03.493Z,3.13
2022-10-06T03:04:06.802Z,3.13
2022-10-06T03:07:11.046Z,3.20
2022-10-06T03:10:15.828Z,3.33
2022-10-06T03:13:19.003Z,3.53
2022-10-06T03:16:24.411Z,3.23
2022-10-06T03:19:28.187Z,3.40
2022-10-06T03:22:31.996Z,3.03
2022-10-06T03:25:37.185Z,3.47
2022-10-06T03:28:40.746Z,3.13
2022-10-06T03:31:44.623Z,3.10
2022-10-06T03:34:48.990Z,3.20
2022-10-06T03:37:52.850Z,3.10
2022-10-06T03:41:05.643Z,2.90
2022-10-06T03:44:09.078Z,3.00
2022-10-06T03:47:17.442Z,2.90
2022-10-06T03:50:22.211Z,3.00
2022-10-06T03:53:28.162Z,2.83
2022-10-06T03:56:36.124Z,3.40
2022-10-06T03:59:40.625Z,3.10
2022-10-06T04:02:43.902Z,3.60
2022-10-06T04:05:54.681Z,3.20
2022-10-06T04:08:59.615Z,3.20
2022-10-06T04:12:04.757Z,3.40
2022-10-06T04:15:11.619Z,3.70
2022-10-06T04:18:16.744Z,3.50
2022-10-06T04:21:20.744Z,3.80
2022-10-06T04:24:24.050Z,3.67
2022-10-06T04:27:29.645Z,3.70
2022-10-06T04:30:38.569Z,4.63
2022-10-06T04:33:42.800Z,4.37
2022-10-06T04:36:47.551Z,4.47
2022-10-06T04:39:53.021Z,4.00
2022-10-06T04:42:57.659Z,3.90
2022-10-06T04:46:13.117Z,3.90
2022-10-06T04:49:25.748Z,3.40
2022-10-06T04:52:30.444Z,3.87
2022-10-06T04:55:34.042Z,3.27
2022-10-06T04:58:40.655Z,3.93
2022-10-06T05:01:44.378Z,3.23
2022-10-06T05:04:49.908Z,3.30
2022-10-06T05:07:53.998Z,3.53
2022-10-06T05:11:00.814Z,3.13
2022-10-06T05:14:06.264Z,2.93
2022-10-06T05:17:12.461Z,3.30
2022-10-06T05:20:16.200Z,2.90
2022-10-06T05:23:20.553Z,3.50
2022-10-06T05:26:26.666Z,3.00
2022-10-06T05:29:32.409Z,3.13
2022-10-06T05:32:36.297Z,3.43
2022-10-06T05:35:40.864Z,3.50
2022-10-06T05:38:44.822Z,3.50
2022-10-06T05:41:48.442Z,3.47
2022-10-06T05:44:53.096Z,3.07
2022-10-06T05:47:56.431Z,3.30
2022-10-06T05:51:01.056Z,3.40
2022-10-06T05:54:05.004Z,3.20
2022-10-06T05:57:09.246Z,3.10
2022-10-06T06:00:14.421Z,3.77
2022-10-06T06:03:20.814Z,3.77
2022-10-06T06:06:26.208Z,3.40
2022-10-06T06:09:31.475Z,4.03
2022-10-06T06:12:39.680Z,4.10
2022-10-06T06:16:06.184Z,4.33
2022-10-06T06:19:12.519Z,4.43
2022-10-06T06:22:17.189Z,4.77
2022-10-06T06:25:22.669Z,3.80
2022-10-06T06:28:26.149Z,4.97
2022-10-06T06:31:33.233Z,4.37
2022-10-06T06:34:36.698Z,4.10
2022-10-06T06:37:40.301Z,3.93
2022-10-06T06:40:43.536Z,3.63
2022-10-06T06:43:50.107Z,4.37
2022-10-06T06:47:24.393Z,3.90
2022-10-06T06:50:29.349Z,3.77
2022-10-06T06:53:33.163Z,3.73
2022-10-06T06:56:39.040Z,3.37
2022-10-06T06:59:45.676Z,3.50
2022-10-06T07:02:56.282Z,3.27
2022-10-06T07:06:09.520Z,3.50
2022-10-06T07:09:14.345Z,3.50
2022-10-06T07:12:18.767Z,3.00
2022-10-06T07:15:45.264Z,3.53
2022-10-06T07:19:07.375Z,2.77
2022-10-06T07:22:34.587Z,2.63
2022-10-06T07:25:40.261Z,2.60
2022-10-06T07:28:46.251Z,2.60
2022-10-06T07:31:52.176Z,2.40
2022-10-06T07:34:58.224Z,2.73
2022-10-06T07:38:08.054Z,2.63
2022-10-06T07:41:20.040Z,2.40
2022-10-06T07:44:30.789Z,2.70
2022-10-06T07:47:34.470Z,2.10
2022-10-06T07:50:42.148Z,2.30
2022-10-06T07:53:50.220Z,2.40
2022-10-06T07:56:59.863Z,2.30
2022-10-06T08:00:05.609Z,2.40
2022-10-06T08:03:18.920Z,2.60
2022-10-06T08:06:23.870Z,3.23
2022-10-06T08:09:27.146Z,3.73
2022-10-06T08:12:37.948Z,3.87
2022-10-06T08:15:41.353Z,3.40
2022-10-06T08:18:46.873Z,2.83
2022-10-06T08:21:52.280Z,2.53
2022-10-06T08:25:05.694Z,3.10
2022-10-06T08:28:09.771Z,4.17
2022-10-06T08:31:13.413Z,3.95
2022-10-06T08:34:16.719Z,3.70
2022-10-06T08:37:23.764Z,4.53
2022-10-06T08:40:28.316Z,3.00
2022-10-06T08:43:32.813Z,2.40
2022-10-06T08:46:41.637Z,5.35
2022-10-06T08:49:46.447Z,2.63
2022-10-06T08:53:05.088Z,2.58
2022-10-06T08:56:18.342Z,5.07
2022-10-06T08:59:22.149Z,4.75
2022-10-06T09:02:31.536Z,3.30
2022-10-06T09:05:35.168Z,3.25
2022-10-06T09:08:49.501Z,3.10
2022-10-06T09:12:01.978Z,2.78
2022-10-06T09:15:20.794Z,2.83
2022-10-06T09:18:49.338Z,2.20
2022-10-06T09:21:55.622Z,2.10
2022-10-06T09:25:10.180Z,1.83
2022-10-06T09:28:16.789Z,1.90
2022-10-06T09:31:23.628Z,1.45
2022-10-06T09:34:37.651Z,2.33
2022-10-06T09:37:54.667Z,1.80
2022-10-06T09:40:59.434Z,1.70
2022-10-06T09:44:06.076Z,1.95
2022-10-06T09:47:31.943Z,1.70
2022-10-06T09:50:35.380Z,1.83
2022-10-06T09:53:39.661Z,1.77
2022-10-06T09:56:47.287Z,2.30
2022-10-06T09:59:50.665Z,1.98
2022-10-06T10:02:59.603Z,2.10
2022-10-06T10:06:03.207Z,1.90
2022-10-06T10:09:22.913Z,2.80
2022-10-06T10:12:29.096Z,1.60
2022-10-06T10:15:35.283Z,1.58
2022-10-06T10:18:39.148Z,1.50
2022-10-06T10:21:46.109Z,2.55
2022-10-06T10:25:00.293Z,1.98
2022-10-06T10:28:17.230Z,2.45
2022-10-06T10:31:31.371Z,1.90
2022-10-06T10:35:00.169Z,1.70
2022-10-06T10:38:13.769Z,1.63
2022-10-06T10:41:22.272Z,2.33
2022-10-06T10:44:32.900Z,3.05
2022-10-06T10:47:39.315Z,2.15
2022-10-06T10:50:51.202Z,2.22
2022-10-06T10:53:59.833Z,2.03
2022-10-06T10:57:03.654Z,1.90
2022-10-06T11:00:13.622Z,1.70
2022-10-06T11:03:17.059Z,2.55
2022-10-06T11:06:38.789Z,1.73
2022-10-06T11:09:50.479Z,1.90
2022-10-06T11:13:22.094Z,1.88
2022-10-06T11:16:41.040Z,2.78
2022-10-06T11:19:54.706Z,1.55
2022-10-06T11:23:05.226Z,1.40
2022-10-06T11:26:25.079Z,1.63
2022-10-06T11:29:40.611Z,1.60
2022-10-06T11:33:02.059Z,1.52
2022-10-06T11:36:11.464Z,1.73
2022-10-06T11:39:21.807Z,1.70
2022-10-06T11:42:32.868Z,2.08
2022-10-06T11:45:45.770Z,2.00
2022-10-06T11:48:50.455Z,1.80
2022-10-06T11:51:58.289Z,1.70
2022-10-06T11:55:10.697Z,1.58
2022-10-06T11:58:41.261Z,1.75
2022-10-06T12:01:54.167Z,2.65
2022-10-06T12:05:55.869Z,1.85
2022-10-06T12:08:59.004Z,2.10
2022-10-06T12:12:08.063Z,1.80
2022-10-06T12:17:08.342Z,1.70
2022-10-06T12:19:00.154Z,1.90
2022-10-06T12:22:16.931Z,1.77
2022-10-06T12:25:28.067Z,1.80
2022-10-06T12:28:37.679Z,1.92
2022-10-06T12:31:51.473Z,1.70
2022-10-06T12:35:04.158Z,1.80
2022-10-06T12:38:44.996Z,1.52
2022-10-06T12:42:19.047Z,1.40
2022-10-06T12:45:23.975Z,1.80
2022-10-06T12:48:35.230Z,1.65
2022-10-06T12:51:41.476Z,1.60
2022-10-06T12:54:58.405Z,1.15
2022-10-06T12:58:01.856Z,1.48
2022-10-06T13:01:09.900Z,1.50
2022-10-06T13:04:31.305Z,1.40
2022-10-06T13:07:35.535Z,1.13
2022-10-06T13:10:40.255Z,1.35
2022-10-06T13:13:53.989Z,1.30
2022-10-06T13:17:02.469Z,1.08
2022-10-06T13:20:08.280Z,1.05
2022-10-06T13:23:25.570Z,1.10
2022-10-06T13:26:32.837Z,1.52
2022-10-06T13:29:36.124Z,1.50
2022-10-06T13:32:39.742Z,1.50
2022-10-06T13:35:43.276Z,1.13
2022-10-06T13:38:46.747Z,1.33
2022-10-06T13:41:53.753Z,1.20
2022-10-06T13:45:01.039Z,0.90
2022-10-06T13:48:07.438Z,1.10
2022-10-06T13:51:17.922Z,1.17
2022-10-06T13:54:25.656Z,1.45
2022-10-06T13:57:41.475Z,2.80
2022-10-06T14:00:50.131Z,1.95
2022-10-06T14:04:13.203Z,1.98
2022-10-06T14:07:16.447Z,1.88
2022-10-06T14:10:22.401Z,1.60
2022-10-06T14:13:29.358Z,1.40
2022-10-06T14:16:32.976Z,1.70
2022-10-06T14:19:38.982Z,1.40
2022-10-06T14:22:42.477Z,1.20
2022-10-06T14:25:45.726Z,1.40
2022-10-06T14:28:53.074Z,1.50
2022-10-06T14:31:56.235Z,1.65
2022-10-06T14:34:59.472Z,1.10
2022-10-06T14:38:02.800Z,1.30
2022-10-06T14:41:06.479Z,1.73
2022-10-06T14:44:12.463Z,1.02
2022-10-06T14:47:15.732Z,1.30
2022-10-06T14:50:18.962Z,1.10
2022-10-06T14:53:22.183Z,1.25
2022-10-06T14:56:26.776Z,2.30
2022-10-06T14:59:31.885Z,0.98
2022-10-06T15:02:35.796Z,1.50
2022-10-06T15:05:59.508Z,2.33
2022-10-06T15:09:01.749Z,1.40
2022-10-06T15:12:05.395Z,1.95
2022-10-06T15:15:10.981Z,2.38
2022-10-06T15:18:15.464Z,2.40
2022-10-06T15:21:19.068Z,1.70
2022-10-06T15:24:22.269Z,1.48
2022-10-06T15:27:54.515Z,2.22
2022-10-06T15:30:59.241Z,2.47
2022-10-06T15:34:03.808Z,3.70
2022-10-06T15:37:07.768Z,2.60
2022-10-06T15:40:11.495Z,2.55
2022-10-06T15:43:14.691Z,2.58
2022-10-06T15:46:19.369Z,3.00
2022-10-06T15:49:24.040Z,5.50
2022-10-06T15:52:34.000Z,4.05
2022-10-06T15:55:38.827Z,8.38
2022-10-06T15:58:42.075Z,7.00
2022-10-06T16:01:48.058Z,9.10
2022-10-06T16:05:17.197Z,8.10
2022-10-06T16:08:20.551Z,8.82
2022-10-06T16:11:23.749Z,7.38
2022-10-06T16:14:27.437Z,9.53
2022-10-06T16:17:32.024Z,5.38
2022-10-06T16:20:35.265Z,5.60
2022-10-06T16:23:38.471Z,5.03
2022-10-06T16:26:41.788Z,5.75
2022-10-06T16:29:44.980Z,4.27
2022-10-06T16:32:49.587Z,4.53
2022-10-06T16:35:56.798Z,4.40
2022-10-06T16:38:59.989Z,6.75
2022-10-06T16:42:03.837Z,6.53
2022-10-06T16:45:08.197Z,7.93
2022-10-06T16:48:12.840Z,7.47
2022-10-06T16:51:17.951Z,6.70
2022-10-06T16:54:21.158Z,7.43
2022-10-06T16:57:24.959Z,6.77
2022-10-06T17:00:28.188Z,6.20
2022-10-06T17:03:32.936Z,6.13
2022-10-06T17:06:39.218Z,5.57
2022-10-06T17:10:01.497Z,5.40
2022-10-06T17:13:05.636Z,5.87
2022-10-06T17:16:10.775Z,8.83
2022-10-06T17:19:16.979Z,7.90
2022-10-06T17:22:20.264Z,8.87
2022-10-06T17:25:23.405Z,7.23
2022-10-06T17:28:26.881Z,6.73
2022-10-06T17:31:32.839Z,5.97
2022-10-06T17:34:38.009Z,6.50
2022-10-06T17:37:41.384Z,9.27
2022-10-06T17:40:44.964Z,10.70
2022-10-06T17:43:49.709Z,9.50
2022-10-06T17:46:55.461Z,9.20
2022-10-06T17:50:00.624Z,8.77
2022-10-06T17:53:03.823Z,9.13
2022-10-06T17:56:07.893Z,9.83
2022-10-06T17:59:14.547Z,10.00
2022-10-06T18:02:17.717Z,12.23
2022-10-06T18:05:22.391Z,11.20
2022-10-06T18:08:26.343Z,12.97
2022-10-06T18:11:41.919Z,16.13
2022-10-06T18:14:45.516Z,16.63
2022-10-06T18:17:50.697Z,15.80
2022-10-06T18:21:02.976Z,15.80
2022-10-06T18:24:08.133Z,16.00
2022-10-06T18:27:13.770Z,10.70
2022-10-06T18:30:17.043Z,6.97
2022-10-06T18:36:09.971Z,6.93
2022-10-06T18:36:45.157Z,7.90
2022-10-06T18:39:48.454Z,6.43
2022-10-06T18:42:51.635Z,5.93
2022-10-06T18:46:12.609Z,6.37
2022-10-06T18:49:18.282Z,5.63
2022-10-06T18:52:22.863Z,7.60
2022-10-06T18:55:26.527Z,7.60
2022-10-06T18:58:29.716Z,6.43
2022-10-06T19:01:33.566Z,6.73
2022-10-06T19:04:36.977Z,7.70
2022-10-06T19:07:41.851Z,7.60
2022-10-06T19:11:05.215Z,8.13
2022-10-06T19:14:08.452Z,7.13
2022-10-06T19:17:14.039Z,7.47
2022-10-06T19:20:18.449Z,8.57
2022-10-06T19:23:23.320Z,6.93
2022-10-06T19:26:27.126Z,7.63
2022-10-06T19:29:36.689Z,6.47
2022-10-06T19:32:39.887Z,6.87
2022-10-06T19:35:52.191Z,6.23
2022-10-06T19:38:57.632Z,7.07
2022-10-06T19:42:18.015Z,6.27
2022-10-06T19:45:21.603Z,6.10
2022-10-06T19:48:24.828Z,5.63
2022-10-06T19:51:28.021Z,6.50
2022-10-06T19:54:32.781Z,7.53
2022-10-06T19:57:36.015Z,11.37
2022-10-06T20:00:40.571Z,17.77
2022-10-06T20:03:44.196Z,15.57
2022-10-06T20:06:48.645Z,19.50
2022-10-06T20:09:53.276Z,22.33
2022-10-06T20:12:56.657Z,23.33
2022-10-06T20:16:02.521Z,22.17
2022-10-06T20:19:06.603Z,17.40
2022-10-06T20:22:10.190Z,17.13
2022-10-06T20:25:14.747Z,18.93
2022-10-06T20:28:17.991Z,14.73
2022-10-06T20:31:24.233Z,13.23
2022-10-06T20:34:32.044Z,13.57
2022-10-06T20:37:38.400Z,11.97
2022-10-06T20:40:49.002Z,12.93
2022-10-06T20:43:54.078Z,12.57
2022-10-06T20:46:57.318Z,12.50
2022-10-06T20:50:00.559Z,14.27
2022-10-06T20:53:03.728Z,12.03
2022-10-06T20:56:09.063Z,12.83
2022-10-06T20:59:13.338Z,13.30
2022-10-06T21:02:16.628Z,13.80
2022-10-06T21:05:20.281Z,12.23
2022-10-06T21:08:23.613Z,15.27
2022-10-06T21:11:28.329Z,14.00
2022-10-06T21:14:31.516Z,14.13
2022-10-06T21:17:34.679Z,13.67
2022-10-06T21:20:40.762Z,14.60
2022-10-06T21:23:50.165Z,14.43
2022-10-06T21:26:56.257Z,14.80
2022-10-06T21:29:59.405Z,15.27
2022-10-06T21:33:02.659Z,15.93
2022-10-06T21:36:06.749Z,14.80
2022-10-06T21:39:10.474Z,15.77
2022-10-06T21:42:15.099Z,15.10
2022-10-06T21:45:20.970Z,14.67
2022-10-06T21:48:26.368Z,16.10
2022-10-06T21:51:31.241Z,15.10
2022-10-06T21:54:34.672Z,15.10
2022-10-06T21:57:39.318Z,14.43
2022-10-06T22:00:42.499Z,14.97
2022-10-06T22:03:45.703Z,14.97
2022-10-06T22:06:50.797Z,13.70
2022-10-06T22:09:54.043Z,13.87
2022-10-06T22:12:58.686Z,14.33
2022-10-06T22:16:05.425Z,13.77
2022-10-06T22:19:10.451Z,14.30
2022-10-06T22:22:13.709Z,12.67
2022-10-06T22:25:16.928Z,12.57
2022-10-06T22:28:21.964Z,13.53
2022-10-06T22:31:26.470Z,12.70
2022-10-06T22:34:29.961Z,13.23
2022-10-06T22:37:33.182Z,13.77
2022-10-06T22:40:36.337Z,12.80
2022-10-06T22:43:41.034Z,13.17
2022-10-06T22:46:44.689Z,13.13
2022-10-06T22:49:47.949Z,12.13
2022-10-06T22:52:51.120Z,12.03
2022-10-06T22:55:55.750Z,13.20
2022-10-06T22:59:00.743Z,10.57
2022-10-06T23:02:03.979Z,10.90
2022-10-06T23:05:07.769Z,9.17
2022-10-06T23:08:10.997Z,8.83
2022-10-06T23:11:16.101Z,8.87
2022-10-06T23:14:20.769Z,8.30
2022-10-06T23:17:23.995Z,8.63
2022-10-06T23:20:27.711Z,8.33
2022-10-06T23:23:31.002Z,8.30
2022-10-06T23:26:34.229Z,10.13
2022-10-06T23:29:38.827Z,9.07
2022-10-06T23:32:42.037Z,9.97
2022-10-06T23:35:45.222Z,10.60
2022-10-06T23:38:48.409Z,10.93
2022-10-06T23:41:51.601Z,10.00
2022-10-06T23:44:56.360Z,9.70
2022-10-06T23:48:00.219Z,10.40
2022-10-06T23:51:05.710Z,9.13
2022-10-06T23:54:09.626Z,9.43
2022-10-06T23:57:12.751Z,8.37
